Time;durP1;ratioP1;P1;durP2;ratioP2;P2;SDS_P1;SDS_P2;PMS_P1;PMS_P2;Temp;Humidity;BMP_temperature;BMP_pressure;BME280_temperature;BME280_humidity;BME280_pressure;Samples;Min_cycle;Max_cycle;Signal;HPM_P1;HPM_P2
2023/09/27 00:02:22;;;;;;;4.28;2.88;;;20.00;99.90;;;;;;10095013;28;20116;-74
2023/09/27 00:07:13;;;;;;;4.57;2.60;;;20.00;99.90;;;;;;10081343;28;20120;-74
2023/09/27 00:12:05;;;;;;;5.82;3.15;;;19.80;99.90;;;;;;10092802;28;20056;-72
2023/09/27 00:16:58;;;;;;;4.45;3.20;;;19.80;99.90;;;;;;10092557;28;20078;-74
2023/09/27 00:21:53;;;;;;;10.00;4.22;;;19.70;99.90;;;;;;10087825;28;20036;-74
2023/09/27 00:26:44;;;;;;;5.22;3.33;;;19.70;99.90;;;;;;10093314;28;20082;-74
2023/09/27 00:31:34;;;;;;;6.45;3.60;;;19.70;99.90;;;;;;10089307;28;20029;-73
2023/09/27 00:36:25;;;;;;;5.90;3.30;;;19.60;99.90;;;;;;10094972;28;20043;-74
2023/09/27 00:41:16;;;;;;;4.68;3.47;;;19.60;99.90;;;;;;10095741;28;20057;-73
2023/09/27 00:46:07;;;;;;;6.60;3.28;;;19.50;99.90;;;;;;10077608;28;20037;-73
2023/09/27 00:50:58;;;;;;;6.65;3.40;;;19.50;99.90;;;;;;10091780;28;20029;-72
2023/09/27 00:55:50;;;;;;;4.20;2.90;;;19.50;99.90;;;;;;10076715;28;20049;-72
2023/09/27 01:00:41;;;;;;;3.28;2.80;;;19.40;99.90;;;;;;10093584;28;20399;-73
2023/09/27 01:05:32;;;;;;;6.32;3.67;;;19.50;99.90;;;;;;10089014;28;20028;-72
2023/09/27 01:10:23;;;;;;;5.35;2.63;;;19.50;99.90;;;;;;10088100;28;20043;-72
2023/09/27 01:15:14;;;;;;;3.83;2.92;;;19.40;99.90;;;;;;10093258;28;20048;-73
2023/09/27 01:20:12;;;;;;;3.90;2.28;;;19.40;99.90;;;;;;10080293;28;20029;-72
2023/09/27 01:25:07;;;;;;;4.55;2.28;;;19.30;99.90;;;;;;10087339;28;20044;-72
2023/09/27 01:29:57;;;;;;;5.05;2.20;;;19.40;99.90;;;;;;10087449;28;20044;-71
2023/09/27 01:34:48;;;;;;;4.07;2.70;;;19.30;99.90;;;;;;10099854;28;20037;-73
2023/09/27 01:39:39;;;;;;;2.70;2.25;;;19.30;99.90;;;;;;10086931;28;20044;-74
2023/09/27 01:44:29;;;;;;;3.40;2.55;;;19.10;99.90;;;;;;10094150;28;20400;-72
2023/09/27 01:49:20;;;;;;;6.25;3.38;;;19.00;99.90;;;;;;10080759;28;20480;-73
2023/09/27 01:54:10;;;;;;;3.92;3.13;;;18.90;99.90;;;;;;10099796;28;20059;-73
2023/09/27 01:59:01;;;;;;;5.22;2.80;;;19.00;99.90;;;;;;10093952;28;20039;-75
2023/09/27 02:03:52;;;;;;;3.47;2.65;;;19.00;99.90;;;;;;10099958;28;20017;-72
2023/09/27 02:08:43;;;;;;;5.43;2.63;;;18.90;99.90;;;;;;10095814;28;20438;-73
2023/09/27 02:13:33;;;;;;;2.40;2.20;;;18.80;99.90;;;;;;10095596;28;20033;-73
2023/09/27 02:18:24;;;;;;;3.88;2.30;;;18.70;99.90;;;;;;10098740;28;20044;-73
2023/09/27 02:23:15;;;;;;;3.03;2.38;;;18.70;99.90;;;;;;10098686;28;20029;-72
2023/09/27 02:28:06;;;;;;;4.60;2.55;;;18.80;99.90;;;;;;10098690;28;20059;-72
2023/09/27 02:32:57;;;;;;;4.43;2.28;;;18.70;99.90;;;;;;10086160;28;20021;-72
2023/09/27 02:37:47;;;;;;;3.17;2.15;;;18.60;99.90;;;;;;10090806;28;20437;-73
2023/09/27 02:42:47;;;;;;;5.05;2.80;;;18.70;99.90;;;;;;10092158;28;20533;-73
2023/09/27 02:47:40;;;;;;;6.10;3.15;;;18.70;99.90;;;;;;10090537;28;20033;-73
2023/09/27 02:52:32;;;;;;;4.43;2.50;;;18.60;99.90;;;;;;10097009;28;20133;-71
2023/09/27 02:57:23;;;;;;;3.58;2.50;;;18.50;99.90;;;;;;10096600;28;20443;-72
2023/09/27 03:02:14;;;;;;;3.65;2.55;;;18.30;99.90;;;;;;10089015;28;20348;-74
2023/09/27 03:07:08;;;;;;;4.43;2.47;;;18.30;99.90;;;;;;10093520;28;20118;-76
2023/09/27 03:11:59;;;;;;;3.45;2.15;;;18.20;99.90;;;;;;10096243;28;20017;-75
2023/09/27 03:16:49;;;;;;;3.10;2.08;;;18.20;99.90;;;;;;10088539;28;20037;-73
2023/09/27 03:21:40;;;;;;;5.25;3.30;;;18.20;99.90;;;;;;10088437;28;20033;-72
2023/09/27 03:26:31;;;;;;;4.95;2.92;;;18.20;99.90;;;;;;10088614;28;20064;-71
2023/09/27 03:31:22;;;;;;;5.82;2.95;;;18.10;99.90;;;;;;10096784;28;20028;-72
2023/09/27 03:36:14;;;;;;;3.13;2.33;;;18.10;99.90;;;;;;10095910;28;20132;-71
2023/09/27 03:41:09;;;;;;;4.43;2.75;;;18.00;99.90;;;;;;10092038;28;20020;-72
2023/09/27 03:46:06;;;;;;;2.88;2.10;;;18.00;99.90;;;;;;10079618;28;20440;-72
2023/09/27 03:50:57;;;;;;;4.75;3.03;;;17.90;99.90;;;;;;10086644;28;20492;-71
2023/09/27 03:55:47;;;;;;;3.33;2.53;;;18.00;99.90;;;;;;10095608;28;20040;-72
2023/09/27 04:00:39;;;;;;;2.67;2.47;;;17.80;99.90;;;;;;10091718;28;20462;-72
2023/09/27 04:05:29;;;;;;;3.15;2.38;;;17.70;99.90;;;;;;10093459;28;20077;-72
2023/09/27 04:10:20;;;;;;;2.45;2.00;;;17.70;99.90;;;;;;10085784;28;20290;-75
2023/09/27 04:15:12;;;;;;;4.70;3.45;;;17.70;99.90;;;;;;10084582;28;20135;-73
2023/09/27 04:20:18;;;;;;;5.00;3.28;;;17.70;99.90;;;;;;10081309;28;20399;-73
2023/09/27 04:25:09;;;;;;;3.25;2.10;;;17.70;99.90;;;;;;10094786;28;20494;-73
2023/09/27 04:29:59;;;;;;;3.97;3.00;;;17.70;99.90;;;;;;10088210;28;20033;-73
2023/09/27 04:34:50;;;;;;;5.72;2.75;;;17.60;99.90;;;;;;10075719;28;20060;-73
2023/09/27 04:39:41;;;;;;;3.60;2.63;;;17.50;99.90;;;;;;10094598;28;20239;-72
2023/09/27 04:44:31;;;;;;;5.82;3.20;;;17.50;99.90;;;;;;10093549;28;20037;-72
2023/09/27 04:49:22;;;;;;;4.90;2.95;;;17.40;99.90;;;;;;10090029;28;20037;-73
2023/09/27 04:54:13;;;;;;;3.00;2.65;;;17.50;99.90;;;;;;10082067;28;20495;-73
2023/09/27 04:59:05;;;;;;;3.58;2.70;;;17.40;99.90;;;;;;10094197;28;20048;-73
2023/09/27 05:03:55;;;;;;;4.50;3.05;;;17.30;99.90;;;;;;10091536;28;20399;-73
2023/09/27 05:08:46;;;;;;;6.55;3.45;;;17.30;99.90;;;;;;10097659;28;20040;-73
2023/09/27 05:13:37;;;;;;;4.25;2.42;;;17.30;99.90;;;;;;10102090;28;20139;-73
2023/09/27 05:18:27;;;;;;;3.45;2.90;;;17.20;99.90;;;;;;10101413;28;20545;-74
2023/09/27 05:23:18;;;;;;;3.65;2.97;;;17.30;99.90;;;;;;10101347;28;20023;-73
2023/09/27 05:28:09;;;;;;;4.55;3.20;;;17.20;99.90;;;;;;10098326;28;20029;-70
2023/09/27 05:33:00;;;;;;;4.57;2.67;;;17.10;99.90;;;;;;10100847;28;20116;-69
2023/09/27 05:37:50;;;;;;;8.23;3.22;;;16.90;99.90;;;;;;10097271;28;20114;-70
2023/09/27 05:42:42;;;;;;;4.45;2.83;;;16.80;99.90;;;;;;10099763;28;20090;-69
2023/09/27 05:47:33;;;;;;;5.60;3.40;;;16.80;99.90;;;;;;10093765;28;20029;-69
2023/09/27 05:52:24;;;;;;;4.13;2.72;;;16.90;99.90;;;;;;10090344;28;20617;-68
2023/09/27 05:57:14;;;;;;;4.07;2.92;;;16.80;99.90;;;;;;10096517;28;20048;-68
2023/09/27 06:02:06;;;;;;;10.07;2.92;;;16.90;99.90;;;;;;10092525;28;20055;-68
2023/09/27 06:06:58;;;;;;;3.92;2.63;;;16.80;99.90;;;;;;10089439;28;20029;-68
2023/09/27 06:11:48;;;;;;;4.28;2.15;;;16.90;99.90;;;;;;10093741;28;20063;-69
2023/09/27 06:16:39;;;;;;;4.47;2.83;;;17.00;99.90;;;;;;10090636;28;20071;-69
2023/09/27 06:21:30;;;;;;;10.82;2.80;;;17.20;99.90;;;;;;10092754;28;20032;-69
2023/09/27 06:26:21;;;;;;;4.57;2.38;;;16.90;99.90;;;;;;10098027;28;20025;-68
2023/09/27 06:31:13;;;;;;;3.78;2.50;;;16.90;99.90;;;;;;10096801;28;20099;-68
2023/09/27 06:36:05;;;;;;;4.50;2.40;;;17.10;99.90;;;;;;10090745;28;20040;-71
2023/09/27 06:40:57;;;;;;;5.65;3.13;;;17.30;99.90;;;;;;10097127;28;20025;-71
2023/09/27 06:45:49;;;;;;;3.08;2.25;;;17.30;99.90;;;;;;10091604;28;20028;-71
2023/09/27 06:50:41;;;;;;;5.85;3.80;;;17.20;99.90;;;;;;10097275;28;20372;-72
2023/09/27 06:55:32;;;;;;;6.75;3.30;;;17.30;99.90;;;;;;10089422;28;20048;-71
2023/09/27 07:00:25;;;;;;;6.45;3.53;;;17.30;99.90;;;;;;10091027;28;20025;-72
2023/09/27 07:05:16;;;;;;;7.10;3.50;;;17.30;99.90;;;;;;10095239;28;20166;-71
2023/09/27 07:10:08;;;;;;;7.25;3.45;;;17.30;99.90;;;;;;10095265;28;20482;-71
2023/09/27 07:14:59;;;;;;;7.15;3.80;;;17.30;99.90;;;;;;10094901;28;20544;-70
2023/09/27 07:19:53;;;;;;;4.90;3.20;;;17.40;99.90;;;;;;10088232;28;20033;-71
2023/09/27 07:24:44;;;;;;;4.45;3.08;;;17.40;99.90;;;;;;10093607;28;20033;-71
2023/09/27 07:29:35;;;;;;;5.43;3.08;;;17.50;99.90;;;;;;10089502;28;20040;-71
2023/09/27 07:34:27;;;;;;;5.93;3.00;;;17.50;99.90;;;;;;10092380;28;20483;-73
2023/09/27 07:39:20;;;;;;;4.40;3.13;;;17.60;99.90;;;;;;10092541;28;20051;-71
2023/09/27 07:44:12;;;;;;;5.18;2.88;;;17.60;99.90;;;;;;10094316;28;20063;-72
2023/09/27 07:49:03;;;;;;;4.38;2.38;;;17.70;99.90;;;;;;10085221;28;20033;-71
2023/09/27 07:53:54;;;;;;;4.10;3.08;;;17.80;99.90;;;;;;10093018;28;20041;-72
2023/09/27 07:58:46;;;;;;;4.18;2.72;;;17.70;99.90;;;;;;10093649;28;20064;-72
2023/09/27 08:03:38;;;;;;;4.57;2.53;;;17.90;99.90;;;;;;10085658;28;20509;-73
2023/09/27 08:08:29;;;;;;;4.50;2.60;;;17.90;99.90;;;;;;10093203;28;20039;-73
2023/09/27 08:13:20;;;;;;;3.22;2.60;;;18.00;99.90;;;;;;10089758;28;20029;-72
2023/09/27 08:18:10;;;;;;;5.85;2.58;;;18.00;99.90;;;;;;10093575;28;20143;-72
2023/09/27 08:23:05;;;;;;;5.60;2.58;;;17.90;99.90;;;;;;10094597;28;20072;-73
2023/09/27 08:27:56;;;;;;;5.07;2.63;;;18.00;99.90;;;;;;10094714;28;20267;-71
2023/09/27 08:32:47;;;;;;;5.10;2.58;;;17.90;99.90;;;;;;10092913;28;20267;-73
2023/09/27 08:37:38;;;;;;;4.60;2.95;;;18.00;99.90;;;;;;10092219;28;20388;-71
2023/09/27 08:42:30;;;;;;;8.77;2.40;;;18.10;99.90;;;;;;10088770;28;20025;-72
2023/09/27 08:47:22;;;;;;;5.40;3.22;;;18.20;99.90;;;;;;10088600;28;20101;-71
2023/09/27 08:52:13;;;;;;;2.97;2.47;;;18.20;99.90;;;;;;10089454;28;20266;-72
2023/09/27 08:57:05;;;;;;;4.95;2.65;;;18.30;99.90;;;;;;10075700;28;20036;-71
2023/09/27 09:02:00;;;;;;;6.47;3.42;;;18.40;99.90;;;;;;10080637;28;20040;-73
2023/09/27 09:06:51;;;;;;;3.55;2.55;;;18.40;99.90;;;;;;10083252;28;20044;-71
2023/09/27 09:11:48;;;;;;;5.13;3.00;;;18.40;99.90;;;;;;10093656;28;20037;-73
2023/09/27 09:16:47;;;;;;;3.92;2.78;;;18.40;99.90;;;;;;10090539;28;20048;-71
2023/09/27 09:21:38;;;;;;;4.63;2.58;;;18.40;99.90;;;;;;10086552;28;20490;-72
2023/09/27 09:26:29;;;;;;;7.65;2.88;;;18.50;99.90;;;;;;10090949;28;20029;-71
2023/09/27 09:31:26;;;;;;;4.60;2.92;;;18.60;99.90;;;;;;10093331;28;20021;-70
2023/09/27 09:36:16;;;;;;;6.47;2.50;;;18.60;99.90;;;;;;10078885;28;20102;-70
2023/09/27 09:41:08;;;;;;;6.72;3.15;;;18.70;99.90;;;;;;10092953;28;20543;-70
2023/09/27 09:46:00;;;;;;;4.75;2.35;;;18.60;99.90;;;;;;10091966;28;20037;-72
2023/09/27 09:50:51;;;;;;;2.67;2.33;;;18.70;99.90;;;;;;10094972;28;20120;-71
2023/09/27 09:55:46;;;;;;;4.90;2.40;;;18.70;99.90;;;;;;10099774;28;20610;-70
2023/09/27 10:00:42;;;;;;;165.60;89.63;;;18.80;99.90;;;;;;10084983;28;20424;-70
2023/09/27 10:05:42;;;;;;;65.60;40.22;;;18.90;99.90;;;;;;10081646;28;20045;-71
2023/09/27 10:10:34;;;;;;;16.50;8.45;;;19.00;99.90;;;;;;10086213;28;20029;-71
2023/09/27 10:15:26;;;;;;;6.00;4.13;;;19.00;99.90;;;;;;10098922;28;20065;-70
2023/09/27 10:20:22;;;;;;;5.38;4.00;;;19.10;99.90;;;;;;10090000;28;20064;-73
2023/09/27 10:25:26;;;;;;;8.13;3.90;;;19.10;99.90;;;;;;10093329;28;20024;-70
2023/09/27 10:30:16;;;;;;;6.72;4.20;;;19.20;99.90;;;;;;10095565;28;20083;-71
2023/09/27 10:35:21;;;;;;;13.43;5.55;;;19.20;99.90;;;;;;10090581;28;20119;-71
2023/09/27 10:40:22;;;;;;;11.90;6.78;;;19.30;99.90;;;;;;10089471;28;20030;-72
2023/09/27 10:45:13;;;;;;;7.28;3.90;;;19.30;99.90;;;;;;10093063;28;20047;-70
2023/09/27 10:50:05;;;;;;;6.30;4.28;;;19.30;99.90;;;;;;10086428;28;20090;-71
2023/09/27 10:55:08;;;;;;;5.53;3.00;;;19.30;99.90;;;;;;10094766;28;20141;-70
2023/09/27 10:59:59;;;;;;;6.13;3.90;;;19.50;99.90;;;;;;10084519;28;20197;-71
2023/09/27 11:04:55;;;;;;;9.75;6.20;;;19.50;99.90;;;;;;10084484;28;20032;-71
2023/09/27 11:09:48;;;;;;;8.75;3.90;;;19.50;99.90;;;;;;10090765;28;20082;-71
2023/09/27 11:14:44;;;;;;;5.65;3.45;;;19.60;99.90;;;;;;10093927;28;20044;-72
2023/09/27 11:19:35;;;;;;;4.57;3.33;;;19.60;99.90;;;;;;10094935;28;20063;-71
2023/09/27 11:24:39;;;;;;;4.82;3.13;;;19.70;99.90;;;;;;10088826;28;20029;-70
2023/09/27 11:29:30;;;;;;;4.20;2.58;;;19.70;99.90;;;;;;10093313;28;20039;-71
2023/09/27 11:34:22;;;;;;;4.53;3.50;;;19.70;99.90;;;;;;10090485;28;20398;-71
2023/09/27 11:39:13;;;;;;;5.55;3.53;;;19.80;99.90;;;;;;10090200;28;20071;-71
2023/09/27 11:44:19;;;;;;;7.80;3.22;;;19.80;99.90;;;;;;10089064;28;20029;-71
2023/09/27 11:49:10;;;;;;;4.43;3.22;;;19.90;99.90;;;;;;10089836;28;20052;-72
2023/09/27 11:54:05;;;;;;;4.68;3.50;;;20.00;99.90;;;;;;10084937;28;20057;-72
2023/09/27 11:58:55;;;;;;;5.57;3.23;;;20.00;99.90;;;;;;10085458;28;20045;-71
2023/09/27 12:03:47;;;;;;;5.45;3.45;;;20.00;99.90;;;;;;10086299;28;20036;-72
2023/09/27 12:08:38;;;;;;;7.10;3.33;;;20.10;99.90;;;;;;10081544;28;20025;-72
2023/09/27 12:13:29;;;;;;;7.00;3.38;;;20.20;99.90;;;;;;10084561;28;20021;-71
2023/09/27 12:18:20;;;;;;;6.10;4.10;;;20.30;99.90;;;;;;10082355;28;20143;-71
2023/09/27 12:23:11;;;;;;;88.30;48.20;;;20.40;99.90;;;;;;10082011;23;20450;-71
2023/09/27 12:28:03;;;;;;;12.63;7.35;;;20.50;99.90;;;;;;10056925;28;20507;-70
2023/09/27 12:32:55;;;;;;;4.75;3.85;;;20.70;99.90;;;;;;10057975;28;20040;-71
2023/09/27 12:37:46;;;;;;;4.60;3.20;;;20.70;99.90;;;;;;10065764;28;20337;-72
2023/09/27 12:42:37;;;;;;;5.40;3.45;;;20.90;99.90;;;;;;10058366;28;20028;-71
2023/09/27 12:47:28;;;;;;;5.35;3.75;;;21.00;99.90;;;;;;10050798;28;20527;-71
2023/09/27 12:52:18;;;;;;;6.30;3.45;;;21.10;99.90;;;;;;10062035;28;20025;-71
2023/09/27 12:57:09;;;;;;;5.85;3.05;;;21.20;99.90;;;;;;10060221;28;20041;-72
2023/09/27 13:02:00;;;;;;;6.22;3.50;;;21.30;99.90;;;;;;10052706;28;20112;-71
2023/09/27 13:06:51;;;;;;;4.03;2.80;;;21.50;99.90;;;;;;10047605;28;20034;-73
2023/09/27 13:11:42;;;;;;;4.88;2.75;;;21.60;99.90;;;;;;10043708;28;20038;-72
2023/09/27 13:16:33;;;;;;;3.80;2.42;;;21.70;99.90;;;;;;10028436;28;20509;-72
2023/09/27 13:21:24;;;;;;;3.58;2.13;;;21.80;99.90;;;;;;10070549;28;20037;-72
2023/09/27 13:26:15;;;;;;;3.72;2.05;;;22.00;99.90;;;;;;10089782;28;20033;-71
2023/09/27 13:31:07;;;;;;;3.50;2.70;;;22.10;99.90;;;;;;10077576;28;20025;-71
2023/09/27 13:35:59;;;;;;;4.35;2.85;;;22.30;99.90;;;;;;10067685;28;20120;-71
2023/09/27 13:40:50;;;;;;;3.67;2.58;;;22.40;99.90;;;;;;10068920;28;20487;-70
2023/09/27 13:45:41;;;;;;;2.75;1.80;;;22.60;99.90;;;;;;10065439;28;20044;-71
2023/09/27 13:50:33;;;;;;;3.92;1.92;;;22.70;99.90;;;;;;10072996;28;20385;-72
2023/09/27 13:55:24;;;;;;;4.53;2.42;;;22.90;99.90;;;;;;10064220;28;20033;-69
2023/09/27 14:00:15;;;;;;;3.45;1.85;;;23.10;99.90;;;;;;10062553;28;20026;-71
2023/09/27 14:05:06;;;;;;;4.63;1.65;;;23.30;99.90;;;;;;10061976;28;20052;-72
2023/09/27 14:09:57;;;;;;;2.55;1.65;;;23.50;99.90;;;;;;10066987;28;20056;-70
2023/09/27 14:14:50;;;;;;;2.85;2.40;;;23.60;99.90;;;;;;10067023;28;20295;-70
2023/09/27 14:19:40;;;;;;;5.43;2.00;;;23.80;99.90;;;;;;10072085;28;20043;-70
2023/09/27 14:24:33;;;;;;;1.80;1.65;;;24.00;99.90;;;;;;10073314;28;20044;-71
2023/09/27 14:29:24;;;;;;;2.38;1.70;;;24.10;99.90;;;;;;10062488;28;20121;-71
2023/09/27 14:34:14;;;;;;;3.42;1.80;;;24.30;99.90;;;;;;10065565;28;20109;-71
2023/09/27 14:39:11;;;;;;;4.15;2.33;;;24.40;99.90;;;;;;10071582;28;20052;-73
2023/09/27 14:44:02;;;;;;;4.60;1.95;;;24.50;99.90;;;;;;10068654;28;20021;-72
2023/09/27 14:48:53;;;;;;;3.70;1.50;;;24.60;99.90;;;;;;10069193;28;20028;-71
2023/09/27 14:53:44;;;;;;;7.00;2.28;;;24.70;99.90;;;;;;10054552;28;20036;-71
2023/09/27 14:58:36;;;;;;;2.30;1.75;;;24.80;99.90;;;;;;10067939;28;20072;-71
2023/09/27 15:03:26;;;;;;;3.85;1.77;;;25.00;99.90;;;;;;10067532;28;20059;-70
2023/09/27 15:08:17;;;;;;;4.90;1.77;;;25.30;99.90;;;;;;10060312;28;20029;-71
2023/09/27 15:13:08;;;;;;;2.47;1.42;;;25.40;99.90;;;;;;10050709;28;20055;-70
2023/09/27 15:17:58;;;;;;;3.25;2.53;;;25.40;99.90;;;;;;10080569;28;20033;-71
2023/09/27 15:22:52;;;;;;;3.33;1.60;;;25.40;99.90;;;;;;10070684;28;20041;-69
2023/09/27 15:27:43;;;;;;;3.53;2.10;;;25.60;99.90;;;;;;11236998;23;20061;-74
2023/09/27 15:32:34;;;;;;;3.28;1.98;;;25.80;99.90;;;;;;10051613;28;20033;-70
2023/09/27 15:37:25;;;;;;;2.60;1.90;;;26.10;99.90;;;;;;10051415;28;20041;-77
2023/09/27 15:42:16;;;;;;;4.28;1.95;;;26.20;99.90;;;;;;10046186;28;20035;-71
2023/09/27 15:47:11;;;;;;;2.42;1.80;;;26.30;99.90;;;;;;10043453;28;20104;-73
2023/09/27 15:52:02;;;;;;;2.85;1.80;;;26.40;99.90;;;;;;10052162;28;20021;-72
2023/09/27 15:56:52;;;;;;;2.78;1.85;;;26.40;99.90;;;;;;10043763;28;20033;-73
2023/09/27 16:01:44;;;;;;;2.55;1.60;;;26.40;99.90;;;;;;10053662;28;20062;-73
2023/09/27 16:06:41;;;;;;;2.13;1.50;;;26.40;99.90;;;;;;10048826;28;20534;-77
2023/09/27 16:11:32;;;;;;;4.53;1.80;;;26.40;99.90;;;;;;10044621;28;20088;-74
2023/09/27 16:16:23;;;;;;;2.65;1.85;;;26.00;99.90;;;;;;10050711;28;20633;-80
2023/09/27 16:21:15;;;;;;;4.28;1.98;;;25.80;99.90;;;;;;10049604;28;20018;-78
2023/09/27 16:26:06;;;;;;;3.75;2.20;;;25.60;99.90;;;;;;10047752;28;20029;-76
2023/09/27 16:30:58;;;;;;;4.40;2.75;;;25.50;99.90;;;;;;10055031;28;20045;-74
2023/09/27 16:35:50;;;;;;;3.65;2.53;;;25.40;99.90;;;;;;10055452;28;20045;-75
2023/09/27 16:40:40;;;;;;;186.10;108.05;;;25.40;99.90;;;;;;10054655;28;20045;-79
2023/09/27 16:45:32;;;;;;;51.47;29.65;;;25.30;99.90;;;;;;10055359;28;20030;-77
2023/09/27 16:50:23;;;;;;;15.65;8.27;;;25.30;99.90;;;;;;10056486;28;20060;-75
2023/09/27 16:55:20;;;;;;;15.45;10.20;;;25.20;99.90;;;;;;10060380;28;20073;-69
2023/09/27 17:00:11;;;;;;;14.38;7.68;;;25.10;99.90;;;;;;10062159;28;20113;-78
2023/09/27 17:05:02;;;;;;;5.85;4.18;;;25.00;99.90;;;;;;10060384;28;20033;-74
2023/09/27 17:09:52;;;;;;;7.50;3.38;;;25.00;99.90;;;;;;10063062;28;20033;-71
2023/09/27 17:14:44;;;;;;;8.32;4.43;;;24.90;99.90;;;;;;10063271;28;20521;-80
2023/09/27 17:19:34;;;;;;;8.07;3.95;;;24.80;99.90;;;;;;10071345;28;20053;-73
2023/09/27 17:24:25;;;;;;;9.50;4.30;;;24.80;99.90;;;;;;10056796;28;20029;-71
2023/09/27 17:29:16;;;;;;;4.88;3.90;;;24.80;99.90;;;;;;10068329;28;20049;-70
2023/09/27 17:34:07;;;;;;;10.90;6.45;;;24.70;99.90;;;;;;10068941;28;20246;-70
2023/09/27 17:38:58;;;;;;;5.15;3.45;;;24.70;99.90;;;;;;10060704;28;20671;-70
2023/09/27 17:43:48;;;;;;;12.88;5.30;;;24.60;99.90;;;;;;10059767;28;20037;-72
2023/09/27 17:48:39;;;;;;;18.23;7.20;;;24.60;99.90;;;;;;10054370;28;20029;-73
2023/09/27 17:53:30;;;;;;;16.05;6.95;;;24.60;99.90;;;;;;10060093;28;20046;-69
2023/09/27 17:58:20;;;;;;;15.32;6.45;;;24.50;99.90;;;;;;10060007;28;20044;-69
2023/09/27 18:03:11;;;;;;;7.18;4.15;;;24.50;99.90;;;;;;10057030;28;20552;-73
2023/09/27 18:08:02;;;;;;;9.55;4.97;;;24.30;99.90;;;;;;10053641;28;20033;-71
2023/09/27 18:12:53;;;;;;;15.30;7.85;;;24.20;99.90;;;;;;10059207;28;20082;-68
2023/09/27 18:17:44;;;;;;;11.73;5.75;;;24.20;99.90;;;;;;10057810;28;20250;-71
2023/09/27 18:22:35;;;;;;;13.73;8.23;;;24.20;99.90;;;;;;10058880;28;20045;-71
2023/09/27 18:27:26;;;;;;;15.32;7.47;;;24.10;99.90;;;;;;10059038;28;20047;-70
2023/09/27 18:32:16;;;;;;;14.27;7.93;;;24.00;99.90;;;;;;10058956;28;20032;-70
2023/09/27 18:37:10;;;;;;;14.63;7.22;;;23.90;99.90;;;;;;10057485;28;20111;-69
2023/09/27 18:42:01;;;;;;;13.23;7.63;;;23.90;99.90;;;;;;10058559;28;20132;-68
2023/09/27 18:46:51;;;;;;;12.23;7.88;;;23.90;99.90;;;;;;10058903;28;20022;-72
2023/09/27 18:51:42;;;;;;;11.40;6.97;;;23.80;99.90;;;;;;10058022;28;20033;-69
2023/09/27 18:56:33;;;;;;;9.38;6.70;;;23.70;99.90;;;;;;10060908;28;20057;-71
2023/09/27 19:01:24;;;;;;;11.23;7.88;;;23.70;99.90;;;;;;10057109;28;20463;-75
2023/09/27 19:06:16;;;;;;;11.10;7.90;;;23.60;99.90;;;;;;10059854;28;20068;-73
2023/09/27 19:11:07;;;;;;;13.90;6.95;;;23.60;99.90;;;;;;10053944;28;20088;-72
2023/09/27 19:15:57;;;;;;;14.45;8.70;;;23.60;99.90;;;;;;10056425;28;20575;-73
2023/09/27 19:20:48;;;;;;;12.48;7.25;;;23.40;99.90;;;;;;10057363;28;20174;-73
2023/09/27 19:25:41;;;;;;;11.80;7.40;;;23.40;99.90;;;;;;10057557;28;20199;-71
2023/09/27 19:30:33;;;;;;;18.25;9.35;;;23.50;99.90;;;;;;10057663;28;20061;-69
2023/09/27 19:35:23;;;;;;;13.55;8.45;;;23.40;99.90;;;;;;10059097;28;20473;-71
2023/09/27 19:40:15;;;;;;;15.95;9.95;;;23.40;99.90;;;;;;10056460;28;20072;-70
2023/09/27 19:45:06;;;;;;;18.75;10.38;;;23.30;99.90;;;;;;10057242;28;20541;-70
2023/09/27 19:49:57;;;;;;;14.73;8.13;;;23.30;99.90;;;;;;10056714;28;20120;-70
2023/09/27 19:54:48;;;;;;;15.52;10.02;;;23.30;99.90;;;;;;10059146;28;20125;-71
2023/09/27 19:59:38;;;;;;;16.83;10.93;;;23.20;99.90;;;;;;10053578;28;20099;-71
2023/09/27 20:04:29;;;;;;;13.73;8.75;;;23.20;99.90;;;;;;10052866;28;20501;-74
2023/09/27 20:09:20;;;;;;;14.25;8.73;;;23.10;99.90;;;;;;10054578;28;20387;-74
2023/09/27 20:14:10;;;;;;;13.15;6.93;;;23.20;99.90;;;;;;10056401;28;20449;-73
2023/09/27 20:19:04;;;;;;;12.35;6.65;;;23.10;99.90;;;;;;10055990;28;20063;-72
2023/09/27 20:23:55;;;;;;;12.48;5.80;;;23.10;99.90;;;;;;10053602;28;20025;-73
2023/09/27 20:28:46;;;;;;;12.63;6.93;;;23.00;99.90;;;;;;10050027;28;20057;-70
2023/09/27 20:33:36;;;;;;;10.75;6.88;;;23.00;99.90;;;;;;10059962;28;20018;-69
2023/09/27 20:38:28;;;;;;;7.85;5.60;;;22.90;99.90;;;;;;10057215;28;20537;-70
2023/09/27 20:43:19;;;;;;;9.68;6.00;;;22.90;99.90;;;;;;10054845;28;20017;-69
2023/09/27 20:48:10;;;;;;;10.15;6.47;;;22.80;99.90;;;;;;10053532;28;20034;-73
2023/09/27 20:53:01;;;;;;;10.30;5.72;;;22.80;99.90;;;;;;10055073;28;20030;-73
2023/09/27 20:57:52;;;;;;;9.07;6.22;;;22.70;99.90;;;;;;10054349;28;20083;-74
2023/09/27 21:02:42;;;;;;;9.80;6.05;;;22.70;99.90;;;;;;10054632;28;20072;-71
2023/09/27 21:07:35;;;;;;;9.93;6.38;;;22.70;99.90;;;;;;10053485;28;20021;-68
2023/09/27 21:12:26;;;;;;;10.20;6.40;;;22.60;99.90;;;;;;10054398;28;20022;-72
2023/09/27 21:17:17;;;;;;;11.20;6.10;;;22.50;99.90;;;;;;10052798;28;20454;-74
2023/09/27 21:22:08;;;;;;;12.70;6.03;;;22.50;99.90;;;;;;10048620;28;20028;-71
2023/09/27 21:26:58;;;;;;;9.27;5.75;;;22.50;99.90;;;;;;10050687;28;20046;-69
2023/09/27 21:31:49;;;;;;;8.57;5.03;;;22.30;99.90;;;;;;10053189;28;20530;-71
2023/09/27 21:36:41;;;;;;;8.25;5.65;;;22.40;99.90;;;;;;10050569;28;20048;-72
2023/09/27 21:41:32;;;;;;;5.40;3.75;;;22.30;99.90;;;;;;10059361;28;20486;-71
2023/09/27 21:46:22;;;;;;;5.88;3.70;;;22.20;99.90;;;;;;10056764;28;20056;-70
2023/09/27 21:51:14;;;;;;;5.90;3.75;;;22.20;99.90;;;;;;10051553;28;20045;-70
2023/09/27 21:56:06;;;;;;;4.88;3.88;;;22.20;99.90;;;;;;10054232;28;20148;-71
2023/09/27 22:00:58;;;;;;;4.60;3.60;;;22.10;99.90;;;;;;10060598;28;20025;-70
2023/09/27 22:05:48;;;;;;;6.75;4.20;;;22.10;99.90;;;;;;10060187;28;20071;-71
2023/09/27 22:10:42;;;;;;;8.23;4.03;;;22.00;99.90;;;;;;10055767;28;20038;-71
2023/09/27 22:15:35;;;;;;;5.30;3.38;;;21.90;99.90;;;;;;10050551;28;20041;-69
2023/09/27 22:20:29;;;;;;;4.40;3.42;;;21.90;99.90;;;;;;10053368;28;20108;-69
2023/09/27 22:25:20;;;;;;;6.25;4.10;;;21.90;99.90;;;;;;10055128;28;20021;-69
2023/09/27 22:30:14;;;;;;;5.03;4.00;;;21.70;99.90;;;;;;10057419;28;20485;-71
2023/09/27 22:35:27;;;;;;;5.90;3.75;;;21.70;99.90;;;;;;10062606;28;20025;-71
2023/09/27 22:40:20;;;;;;;5.85;3.67;;;21.70;99.90;;;;;;10058700;28;20025;-69
2023/09/27 22:45:27;;;;;;;6.85;3.67;;;21.70;99.90;;;;;;10059094;28;20041;-72
2023/09/27 22:50:23;;;;;;;4.55;3.47;;;21.70;99.90;;;;;;10059707;28;20497;-70
2023/09/27 22:55:15;;;;;;;4.72;3.53;;;21.60;99.90;;;;;;10060713;28;20022;-73
2023/09/27 23:00:10;;;;;;;7.35;4.30;;;21.60;99.90;;;;;;10062562;28;20536;-69
2023/09/27 23:05:26;;;;;;;4.00;3.60;;;21.50;99.90;;;;;;10054332;28;20056;-71
2023/09/27 23:10:11;;;;;;;5.13;3.22;;;21.40;99.90;;;;;;10058052;28;20040;-70
2023/09/27 23:19:53;;;;;;;3.97;3.58;;;21.30;99.90;;;;;;10057814;28;20033;-75
2023/09/27 23:24:45;;;;;;;5.35;3.88;;;21.20;99.90;;;;;;10058490;28;20026;-69
2023/09/27 23:29:36;;;;;;;6.43;3.28;;;21.20;99.90;;;;;;10058057;28;20061;-69
2023/09/27 23:34:33;;;;;;;5.75;3.83;;;21.30;99.90;;;;;;10062411;28;20071;-69
2023/09/27 23:39:23;;;;;;;4.63;3.13;;;21.10;99.90;;;;;;10057573;28;20033;-69
2023/09/27 23:44:14;;;;;;;4.20;3.05;;;21.10;99.90;;;;;;10057045;28;20494;-69
2023/09/27 23:49:05;;;;;;;5.47;3.17;;;21.10;99.90;;;;;;10055793;28;20065;-70
2023/09/27 23:53:59;;;;;;;3.88;2.92;;;21.10;99.90;;;;;;10049383;28;20017;-72
2023/09/27 23:58:52;;;;;;;4.30;2.90;;;21.10;99.90;;;;;;10054554;28;20067;-70
